createdAt,value
2022-08-10T00:00:39.276Z,0.00
2022-08-10T00:01:39.335Z,0.00
2022-08-10T00:02:39.267Z,0.00
2022-08-10T00:03:39.261Z,0.00
2022-08-10T00:04:39.254Z,0.00
2022-08-10T00:05:43.383Z,0.00
2022-08-10T00:06:40.240Z,0.00
2022-08-10T00:07:39.220Z,0.00
2022-08-10T00:08:39.216Z,0.00
2022-08-10T00:09:50.694Z,0.00
2022-08-10T00:10:40.197Z,0.00
2022-08-10T00:11:39.194Z,0.00
2022-08-10T00:12:53.670Z,0.00
2022-08-10T00:13:40.178Z,0.00
2022-08-10T00:14:39.176Z,0.00
2022-08-10T00:15:52.023Z,0.00
2022-08-10T00:16:40.152Z,0.00
2022-08-10T00:17:39.140Z,0.00
2022-08-10T00:18:39.143Z,0.00
2022-08-10T00:20:03.162Z,0.00
2022-08-10T00:20:40.113Z,0.00
2022-08-10T00:21:39.114Z,0.00
2022-08-10T00:22:52.826Z,0.00
2022-08-10T00:23:40.100Z,0.00
2022-08-10T00:24:43.044Z,0.00
2022-08-10T00:25:40.079Z,0.00
2022-08-10T00:27:52.495Z,0.00
2022-08-10T00:27:52.570Z,0.00
2022-08-10T00:28:40.054Z,0.00
2022-08-10T00:29:39.048Z,0.00
2022-08-10T00:30:39.041Z,0.00
2022-08-10T00:32:39.172Z,0.00
2022-08-10T00:33:39.172Z,0.00
2022-08-10T00:34:39.164Z,0.00
2022-08-10T00:35:39.153Z,0.00
2022-08-10T00:36:39.143Z,0.00
2022-08-10T00:37:39.139Z,0.00
2022-08-10T00:38:40.216Z,0.00
2022-08-10T00:39:40.258Z,0.00
2022-08-10T00:40:40.207Z,0.00
2022-08-10T00:41:40.193Z,0.00
2022-08-10T00:42:40.188Z,0.00
2022-08-10T00:43:40.181Z,0.00
2022-08-10T00:44:40.186Z,0.00
2022-08-10T00:45:40.177Z,0.00
2022-08-10T00:46:40.154Z,0.00
2022-08-10T00:47:40.146Z,0.00
2022-08-10T00:48:40.141Z,0.00
2022-08-10T00:49:40.133Z,0.00
2022-08-10T00:50:40.123Z,0.00
2022-08-10T00:51:43.114Z,0.00
2022-08-10T00:52:41.107Z,0.00
2022-08-10T00:53:40.093Z,0.00
2022-08-10T00:54:40.089Z,0.00
2022-08-10T00:57:12.372Z,0.00
2022-08-10T00:57:17.038Z,0.00
2022-08-10T00:57:41.061Z,0.00
2022-08-10T00:58:40.054Z,0.00
2022-08-10T00:59:59.138Z,0.00
2022-08-10T01:00:41.052Z,0.00
2022-08-10T01:02:09.840Z,0.00
2022-08-10T01:02:41.130Z,0.00
2022-08-10T01:04:36.778Z,0.00
2022-08-10T01:04:59.914Z,0.00
2022-08-10T01:05:51.227Z,0.00
2022-08-10T01:06:40.991Z,0.00
2022-08-10T01:07:39.987Z,0.00
2022-08-10T01:08:39.980Z,0.00
2022-08-10T01:09:40.559Z,0.00
2022-08-10T01:10:40.167Z,0.00
2022-08-10T01:12:40.981Z,0.00
2022-08-10T01:12:41.724Z,0.00
2022-08-10T01:13:40.939Z,0.00
2022-08-10T01:14:39.929Z,0.00
2022-08-10T01:15:40.138Z,0.00
2022-08-10T01:16:39.920Z,0.00
2022-08-10T01:17:50.207Z,0.00
2022-08-10T01:18:42.001Z,0.00
2022-08-10T01:19:39.887Z,0.00
2022-08-10T01:20:39.879Z,0.00
2022-08-10T01:21:39.895Z,0.00
2022-08-10T01:22:40.878Z,0.00
2022-08-10T01:23:39.857Z,0.00
2022-08-10T01:24:39.856Z,0.00
2022-08-10T01:26:10.827Z,0.00
2022-08-10T01:26:41.148Z,0.00
2022-08-10T01:27:39.836Z,0.00
2022-08-10T01:28:39.822Z,0.00
2022-08-10T01:29:39.812Z,0.00
2022-08-10T01:30:39.809Z,0.00
2022-08-10T01:31:39.833Z,0.00
2022-08-10T01:32:39.788Z,0.00
2022-08-10T01:33:58.393Z,0.00
2022-08-10T01:34:40.768Z,0.00
2022-08-10T01:35:39.762Z,0.00
2022-08-10T01:36:39.753Z,0.00
2022-08-10T01:37:39.757Z,0.00
2022-08-10T01:38:40.569Z,0.00
2022-08-10T01:39:39.778Z,0.00
2022-08-10T01:40:39.722Z,0.00
2022-08-10T01:41:45.579Z,0.00
2022-08-10T01:42:40.711Z,0.00
2022-08-10T01:43:39.699Z,0.00
2022-08-10T01:44:39.680Z,0.00
2022-08-10T01:45:45.149Z,0.00
2022-08-10T01:46:40.662Z,0.00
2022-08-10T01:47:39.678Z,0.00
2022-08-10T01:48:39.654Z,0.00
2022-08-10T01:49:39.657Z,0.00
2022-08-10T01:50:53.213Z,0.00
2022-08-10T01:51:40.631Z,0.00
2022-08-10T01:52:39.626Z,0.00
2022-08-10T01:53:41.022Z,0.00
2022-08-10T01:54:39.623Z,0.00
2022-08-10T01:55:39.603Z,0.00
2022-08-10T01:56:39.609Z,0.00
2022-08-10T01:57:39.582Z,0.00
2022-08-10T01:58:39.583Z,0.00
2022-08-10T01:59:39.575Z,0.00
2022-08-10T02:00:39.562Z,0.00
2022-08-10T02:01:39.587Z,0.00
2022-08-10T02:02:39.542Z,0.00
2022-08-10T02:04:03.479Z,0.00
2022-08-10T02:04:40.533Z,0.00
2022-08-10T02:05:39.522Z,0.00
2022-08-10T02:06:40.523Z,0.00
2022-08-10T02:07:39.509Z,0.00
2022-08-10T02:08:39.504Z,0.00
2022-08-10T02:09:39.495Z,0.00
2022-08-10T02:10:39.483Z,0.00
2022-08-10T02:12:06.254Z,0.00
2022-08-10T02:12:40.464Z,0.00
2022-08-10T02:13:39.459Z,0.00
2022-08-10T02:14:39.462Z,0.00
2022-08-10T02:15:39.440Z,0.00
2022-08-10T02:16:40.450Z,0.00
2022-08-10T02:17:57.712Z,0.00
2022-08-10T02:18:40.421Z,0.00
2022-08-10T02:19:39.414Z,0.00
2022-08-10T02:20:39.413Z,0.00
2022-08-10T02:21:39.406Z,0.00
2022-08-10T02:22:40.393Z,0.00
2022-08-10T02:23:39.379Z,0.00
2022-08-10T02:24:39.377Z,0.00
2022-08-10T02:25:41.774Z,0.00
2022-08-10T02:26:39.353Z,0.00
2022-08-10T02:27:39.347Z,0.00
2022-08-10T02:28:39.342Z,0.00
2022-08-10T02:29:42.362Z,0.00
2022-08-10T02:30:39.330Z,0.00
2022-08-10T02:31:39.341Z,0.00
2022-08-10T02:32:39.614Z,0.00
2022-08-10T02:33:39.300Z,0.00
2022-08-10T02:34:40.292Z,0.00
2022-08-10T02:35:55.146Z,0.00
2022-08-10T02:36:40.270Z,0.00
2022-08-10T02:37:39.277Z,0.00
2022-08-10T02:38:59.118Z,0.00
2022-08-10T02:39:40.319Z,0.00
2022-08-10T02:45:02.154Z,0.00
2022-08-10T02:45:02.455Z,0.00
2022-08-10T02:45:17.813Z,0.00
2022-08-10T02:45:24.535Z,0.00
2022-08-10T02:45:29.225Z,0.00
2022-08-10T02:45:41.202Z,0.00
2022-08-10T02:46:39.192Z,0.00
2022-08-10T02:47:46.615Z,0.00
2022-08-10T02:48:40.197Z,0.00
2022-08-10T02:49:39.174Z,0.00
2022-08-10T02:50:39.169Z,0.00
2022-08-10T02:52:06.206Z,0.00
2022-08-10T02:52:40.158Z,0.00
2022-08-10T02:53:51.734Z,0.00
2022-08-10T02:54:40.152Z,0.00
2022-08-10T02:55:39.136Z,0.00
2022-08-10T02:56:39.132Z,0.00
2022-08-10T02:58:16.833Z,0.00
2022-08-10T02:58:40.108Z,0.00
2022-08-10T02:59:39.970Z,0.00
2022-08-10T03:00:39.144Z,0.00
2022-08-10T03:01:39.176Z,0.00
2022-08-10T03:02:39.079Z,0.00
2022-08-10T03:03:39.067Z,0.00
2022-08-10T03:04:55.442Z,0.00
2022-08-10T03:05:40.054Z,0.00
2022-08-10T03:06:39.066Z,0.00
2022-08-10T03:07:43.360Z,0.00
2022-08-10T03:08:40.031Z,0.00
2022-08-10T03:09:39.035Z,0.00
2022-08-10T03:10:39.759Z,0.00
2022-08-10T03:12:37.805Z,0.00
2022-08-10T03:12:40.003Z,0.00
2022-08-10T03:13:38.987Z,0.00
2022-08-10T03:14:38.985Z,0.00
2022-08-10T03:15:38.977Z,0.00
2022-08-10T03:16:38.978Z,0.00
2022-08-10T03:17:38.976Z,0.00
2022-08-10T03:18:38.959Z,0.00
2022-08-10T03:20:35.312Z,0.00
2022-08-10T03:20:40.352Z,0.00
2022-08-10T03:21:39.928Z,0.00
2022-08-10T03:22:38.921Z,0.00
2022-08-10T03:23:38.914Z,0.00
2022-08-10T03:24:38.903Z,0.00
2022-08-10T03:25:38.904Z,0.00
2022-08-10T03:26:38.887Z,0.00
2022-08-10T03:27:38.881Z,0.00
2022-08-10T03:28:38.880Z,0.00
2022-08-10T03:30:23.405Z,0.00
2022-08-10T03:30:39.885Z,0.00
2022-08-10T03:31:40.313Z,0.00
2022-08-10T03:32:38.843Z,0.00
2022-08-10T03:33:38.841Z,0.00
2022-08-10T03:34:38.825Z,0.00
2022-08-10T03:35:38.830Z,0.00
2022-08-10T03:36:40.427Z,0.00
2022-08-10T03:37:39.804Z,0.00
2022-08-10T03:38:38.799Z,0.00
2022-08-10T03:39:38.859Z,0.00
2022-08-10T03:40:45.643Z,0.00
2022-08-10T03:41:39.803Z,0.00
2022-08-10T03:42:38.759Z,0.00
2022-08-10T03:43:38.767Z,0.00
2022-08-10T03:44:38.742Z,0.00
2022-08-10T03:45:55.152Z,0.00
2022-08-10T03:46:39.733Z,0.00
2022-08-10T03:47:38.725Z,0.00
2022-08-10T03:48:49.023Z,0.00
2022-08-10T03:49:39.708Z,0.00
2022-08-10T03:50:51.520Z,0.00
2022-08-10T03:51:39.694Z,0.00
2022-08-10T03:52:38.695Z,0.00
2022-08-10T03:54:04.941Z,0.00
2022-08-10T03:54:39.669Z,0.00
2022-08-10T03:56:30.017Z,0.00
2022-08-10T03:56:40.657Z,0.00
2022-08-10T03:57:49.263Z,0.00
2022-08-10T03:58:39.628Z,0.00
2022-08-10T03:59:38.628Z,0.00
2022-08-10T04:00:38.648Z,0.00
2022-08-10T04:02:44.210Z,5.62
2022-08-10T04:02:46.314Z,0.00
2022-08-10T04:03:39.601Z,5.62
2022-08-10T04:04:38.588Z,5.62
2022-08-10T04:05:39.146Z,5.62
2022-08-10T04:06:38.591Z,5.62
2022-08-10T04:07:38.577Z,5.62
2022-08-10T04:08:38.564Z,5.62
2022-08-10T04:09:55.588Z,11.25
2022-08-10T04:10:39.553Z,11.25
2022-08-10T04:11:40.555Z,11.25
2022-08-10T04:12:38.524Z,11.25
2022-08-10T04:13:38.523Z,11.25
2022-08-10T04:14:50.683Z,11.25
2022-08-10T04:15:39.501Z,16.88
2022-08-10T04:16:38.522Z,16.88
2022-08-10T04:18:04.446Z,16.88
2022-08-10T04:18:39.489Z,16.88
2022-08-10T04:19:38.477Z,22.50
2022-08-10T04:20:38.468Z,22.50
2022-08-10T04:21:39.681Z,22.50
2022-08-10T04:22:38.454Z,22.50
2022-08-10T04:23:38.441Z,22.50
2022-08-10T04:24:39.115Z,28.12
2022-08-10T04:25:38.439Z,28.12
2022-08-10T04:26:38.427Z,28.12
2022-08-10T04:27:38.422Z,28.12
2022-08-10T04:28:38.439Z,33.75
2022-08-10T04:29:38.409Z,33.75
2022-08-10T04:30:38.395Z,33.75
2022-08-10T04:31:38.381Z,33.75
2022-08-10T04:32:38.378Z,39.38
2022-08-10T04:33:38.376Z,39.38
2022-08-10T04:34:38.362Z,39.38
2022-08-10T04:35:38.360Z,45.00
2022-08-10T04:36:38.358Z,45.00
2022-08-10T04:37:47.132Z,45.00
2022-08-10T04:38:39.336Z,45.00
2022-08-10T04:39:38.347Z,50.62
2022-08-10T04:40:38.325Z,50.62
2022-08-10T04:41:38.314Z,50.62
2022-08-10T04:42:39.295Z,50.62
2022-08-10T04:43:38.301Z,56.25
2022-08-10T04:44:38.283Z,56.25
2022-08-10T04:45:49.357Z,61.88
2022-08-10T04:46:56.129Z,67.50
2022-08-10T04:47:58.054Z,11.25
2022-08-10T04:48:42.716Z,16.88
2022-08-10T04:49:54.510Z,16.88
2022-08-10T04:50:39.246Z,22.50
2022-08-10T04:51:38.238Z,22.50
2022-08-10T04:52:38.349Z,22.50
2022-08-10T04:54:03.957Z,22.50
2022-08-10T04:54:39.205Z,22.50
2022-08-10T04:55:38.224Z,22.50
2022-08-10T04:56:38.239Z,22.50
2022-08-10T04:57:38.192Z,22.50
2022-08-10T04:58:38.175Z,22.50
2022-08-10T04:59:38.174Z,22.50
2022-08-10T05:00:38.265Z,28.12
2022-08-10T05:02:22.568Z,28.12
2022-08-10T05:02:39.183Z,28.12
2022-08-10T05:04:36.776Z,28.12
2022-08-10T05:04:39.495Z,28.12
2022-08-10T05:05:39.113Z,28.12
2022-08-10T05:06:38.113Z,33.75
2022-08-10T05:07:53.795Z,33.75
2022-08-10T05:08:39.091Z,33.75
2022-08-10T05:10:02.276Z,33.75
2022-08-10T05:10:39.635Z,33.75
2022-08-10T05:11:38.063Z,33.75
2022-08-10T05:12:39.044Z,39.38
2022-08-10T05:13:38.049Z,39.38
2022-08-10T05:14:38.038Z,39.38
2022-08-10T05:15:38.032Z,39.38
2022-08-10T05:16:38.025Z,45.00
2022-08-10T05:17:38.025Z,45.00
2022-08-10T05:18:38.018Z,45.00
2022-08-10T05:20:04.007Z,45.00
2022-08-10T05:20:39.001Z,50.62
2022-08-10T05:22:03.669Z,50.62
2022-08-10T05:22:39.368Z,50.62
2022-08-10T05:23:37.976Z,56.25
2022-08-10T05:24:37.966Z,50.62
2022-08-10T05:25:38.305Z,50.62
2022-08-10T05:26:42.288Z,56.25
2022-08-10T05:27:40.638Z,56.25
2022-08-10T05:28:37.937Z,56.25
2022-08-10T05:29:38.306Z,56.25
2022-08-10T05:31:25.619Z,61.88
2022-08-10T05:32:25.603Z,61.88
2022-08-10T05:33:26.193Z,56.25
2022-08-10T05:34:25.589Z,56.25
2022-08-10T05:35:25.585Z,56.25
2022-08-10T05:36:25.574Z,61.88
2022-08-10T05:38:10.158Z,67.50
2022-08-10T05:38:27.858Z,67.50
2022-08-10T05:39:59.762Z,73.12
2022-08-10T05:40:26.631Z,78.75
2022-08-10T05:41:26.627Z,84.38
2022-08-10T05:42:27.005Z,84.38
2022-08-10T05:43:26.611Z,90.00
2022-08-10T05:44:26.607Z,90.00
2022-08-10T05:45:26.594Z,95.62
2022-08-10T05:46:26.591Z,95.62
2022-08-10T05:47:26.566Z,101.25
2022-08-10T05:48:55.910Z,95.62
2022-08-10T05:49:27.573Z,84.38
2022-08-10T05:50:26.556Z,95.62
2022-08-10T05:51:26.549Z,101.25
2022-08-10T05:52:26.562Z,106.88
2022-08-10T05:54:03.257Z,106.88
2022-08-10T05:54:27.517Z,106.88
2022-08-10T05:55:26.510Z,101.25
2022-08-10T05:56:26.506Z,101.25
2022-08-10T05:57:27.491Z,95.62
2022-08-10T05:58:26.498Z,90.00
2022-08-10T06:00:35.746Z,95.62
2022-08-10T06:00:37.544Z,95.62
2022-08-10T06:01:27.480Z,90.00
2022-08-10T06:02:34.164Z,95.62
2022-08-10T06:03:27.476Z,95.62
2022-08-10T06:04:26.459Z,95.62
2022-08-10T06:05:26.447Z,90.00
2022-08-10T06:06:26.430Z,90.00
2022-08-10T06:07:26.441Z,90.00
2022-08-10T06:08:26.814Z,90.00
2022-08-10T06:09:26.401Z,101.25
2022-08-10T06:10:32.346Z,101.25
2022-08-10T06:12:23.574Z,101.25
2022-08-10T06:12:29.794Z,101.25
2022-08-10T06:13:30.332Z,106.88
2022-08-10T06:14:28.323Z,106.88
2022-08-10T06:15:50.536Z,112.50
2022-08-10T06:16:27.346Z,112.50
2022-08-10T06:17:26.334Z,112.50
2022-08-10T06:18:26.325Z,112.50
2022-08-10T06:19:26.337Z,118.12
2022-08-10T06:20:26.310Z,118.12
2022-08-10T06:21:26.328Z,123.75
2022-08-10T06:22:26.373Z,129.38
2022-08-10T06:23:26.304Z,135.00
2022-08-10T06:24:30.778Z,135.00
2022-08-10T06:26:10.065Z,140.62
2022-08-10T06:26:28.274Z,140.62
2022-08-10T06:27:34.741Z,140.62
2022-08-10T06:28:27.262Z,151.88
2022-08-10T06:29:26.237Z,163.12
2022-08-10T06:30:26.252Z,157.50
2022-08-10T06:31:26.230Z,123.75
2022-08-10T06:32:26.217Z,168.75
2022-08-10T06:33:26.227Z,168.75
2022-08-10T06:34:26.199Z,157.50
2022-08-10T06:35:26.190Z,146.25
2022-08-10T06:36:26.183Z,129.38
2022-08-10T06:37:27.168Z,90.00
2022-08-10T06:38:26.166Z,112.50
2022-08-10T06:39:34.876Z,106.88
2022-08-10T06:40:28.201Z,101.25
2022-08-10T06:41:58.067Z,95.62
2022-08-10T06:42:27.129Z,90.00
2022-08-10T06:43:26.124Z,84.38
2022-08-10T06:44:26.128Z,84.38
2022-08-10T06:45:26.106Z,84.38
2022-08-10T06:46:26.103Z,78.75
2022-08-10T06:47:26.103Z,78.75
2022-08-10T06:48:26.084Z,78.75
2022-08-10T06:49:26.074Z,78.75
2022-08-10T06:50:34.484Z,78.75
2022-08-10T06:51:27.072Z,78.75
2022-08-10T06:52:26.054Z,78.75
2022-08-10T06:53:53.359Z,73.12
2022-08-10T06:54:27.738Z,73.12
2022-08-10T06:55:27.345Z,73.12
2022-08-10T06:56:38.134Z,73.12
2022-08-10T06:57:27.009Z,73.12
2022-08-10T06:58:26.864Z,73.12
2022-08-10T06:59:26.819Z,73.12
2022-08-10T07:00:32.427Z,73.12
2022-08-10T07:01:27.071Z,73.12
2022-08-10T07:02:25.985Z,67.50
2022-08-10T07:03:25.980Z,73.12
2022-08-10T07:04:32.501Z,67.50
2022-08-10T07:05:26.954Z,67.50
2022-08-10T07:06:25.943Z,56.25
2022-08-10T07:07:25.947Z,61.88
2022-08-10T07:08:25.935Z,56.25
2022-08-10T07:09:25.927Z,61.88
2022-08-10T07:10:26.269Z,61.88
2022-08-10T07:11:26.905Z,67.50
2022-08-10T07:12:25.915Z,61.88
2022-08-10T07:14:15.458Z,56.25
2022-08-10T07:14:26.880Z,61.88
2022-08-10T07:15:59.474Z,61.88
2022-08-10T07:16:26.873Z,50.62
2022-08-10T07:17:25.856Z,56.25
2022-08-10T07:18:25.849Z,56.25
2022-08-10T07:19:25.840Z,56.25
2022-08-10T07:20:25.859Z,56.25
2022-08-10T07:21:25.837Z,56.25
2022-08-10T07:23:27.033Z,56.25
2022-08-10T07:23:55.159Z,56.25
2022-08-10T07:24:26.800Z,56.25
2022-08-10T07:25:25.798Z,56.25
2022-08-10T07:26:25.786Z,56.25
2022-08-10T07:27:25.810Z,56.25
2022-08-10T07:28:26.778Z,56.25
2022-08-10T07:29:52.883Z,56.25
2022-08-10T07:30:27.750Z,56.25
2022-08-10T07:31:36.846Z,56.25
2022-08-10T07:32:26.867Z,50.62
2022-08-10T07:33:25.764Z,56.25
2022-08-10T07:34:29.195Z,50.62
2022-08-10T07:35:25.722Z,50.62
2022-08-10T07:36:25.726Z,56.25
2022-08-10T07:37:25.716Z,56.25
2022-08-10T07:38:25.725Z,56.25
2022-08-10T07:40:02.189Z,56.25
2022-08-10T07:40:26.810Z,56.25
2022-08-10T07:41:25.691Z,56.25
2022-08-10T07:42:25.668Z,56.25
2022-08-10T07:43:26.776Z,56.25
2022-08-10T07:44:25.647Z,56.25
2022-08-10T07:45:25.647Z,50.62
2022-08-10T07:46:25.646Z,50.62
2022-08-10T07:47:53.066Z,50.62
2022-08-10T07:48:27.644Z,50.62
2022-08-10T07:49:25.677Z,50.62
2022-08-10T07:50:25.622Z,50.62
2022-08-10T07:51:25.602Z,50.62
2022-08-10T07:52:25.599Z,50.62
2022-08-10T07:53:25.613Z,50.62
2022-08-10T07:54:25.574Z,56.25
2022-08-10T07:56:05.895Z,50.62
2022-08-10T07:56:47.868Z,50.62
2022-08-10T07:57:31.452Z,56.25
2022-08-10T07:58:26.572Z,56.25
2022-08-10T07:59:25.541Z,56.25
2022-08-10T08:00:25.525Z,56.25
2022-08-10T08:01:25.538Z,56.25
2022-08-10T08:02:25.516Z,56.25
2022-08-10T08:03:25.626Z,56.25
2022-08-10T08:04:25.503Z,56.25
2022-08-10T08:05:27.549Z,56.25
2022-08-10T08:06:26.495Z,56.25
2022-08-10T08:07:25.474Z,56.25
2022-08-10T08:08:25.472Z,50.62
2022-08-10T08:09:25.473Z,50.62
2022-08-10T08:10:25.451Z,50.62
2022-08-10T08:11:26.633Z,50.62
2022-08-10T08:12:25.444Z,50.62
2022-08-10T08:13:25.431Z,50.62
2022-08-10T08:14:25.434Z,50.62
2022-08-10T08:16:20.840Z,50.62
2022-08-10T08:16:26.424Z,50.62
2022-08-10T08:17:25.398Z,50.62
2022-08-10T08:18:26.395Z,50.62
2022-08-10T08:19:35.451Z,50.62
2022-08-10T08:20:27.374Z,50.62
2022-08-10T08:24:02.712Z,50.62
2022-08-10T08:24:05.538Z,50.62
2022-08-10T08:24:14.786Z,50.62
2022-08-10T08:24:32.587Z,50.62
2022-08-10T08:25:26.339Z,50.62
2022-08-10T08:26:25.323Z,50.62
2022-08-10T08:27:26.326Z,45.00
2022-08-10T08:28:25.304Z,45.00
2022-08-10T08:29:25.300Z,45.00
2022-08-10T08:30:27.840Z,45.00
2022-08-10T08:31:25.294Z,45.00
2022-08-10T08:32:25.265Z,45.00
2022-08-10T08:33:42.596Z,45.00
2022-08-10T08:34:26.262Z,45.00
2022-08-10T08:35:25.254Z,45.00
2022-08-10T08:36:25.254Z,45.00
2022-08-10T08:38:32.172Z,45.00
2022-08-10T08:38:33.280Z,45.00
2022-08-10T08:39:26.270Z,45.00
2022-08-10T08:40:25.214Z,45.00
2022-08-10T08:41:25.219Z,45.00
2022-08-10T08:42:25.201Z,45.00
2022-08-10T08:43:29.701Z,45.00
2022-08-10T08:44:29.560Z,45.00
2022-08-10T08:45:26.175Z,45.00
2022-08-10T08:46:25.171Z,45.00
2022-08-10T08:48:04.050Z,39.38
2022-08-10T08:48:26.147Z,39.38
2022-08-10T08:50:05.554Z,45.00
2022-08-10T08:50:26.139Z,45.00
2022-08-10T08:52:07.039Z,45.00
2022-08-10T08:52:26.128Z,45.00
2022-08-10T08:53:25.181Z,45.00
2022-08-10T08:54:26.104Z,45.00
2022-08-10T08:56:04.021Z,45.00
2022-08-10T08:56:26.088Z,45.00
2022-08-10T08:57:49.379Z,45.00
2022-08-10T08:58:26.079Z,45.00
2022-08-10T08:59:25.073Z,45.00
2022-08-10T09:00:25.057Z,39.38
2022-08-10T09:01:40.573Z,39.38
2022-08-10T09:02:26.041Z,39.38
2022-08-10T09:03:28.172Z,39.38
2022-08-10T09:04:26.024Z,39.38
2022-08-10T09:05:25.026Z,39.38
2022-08-10T09:06:25.023Z,39.38
2022-08-10T09:07:58.955Z,39.38
2022-08-10T09:08:25.995Z,39.38
2022-08-10T09:09:24.984Z,39.38
2022-08-10T09:10:24.983Z,39.38
2022-08-10T09:11:24.976Z,39.38
2022-08-10T09:12:24.963Z,39.38
2022-08-10T09:13:24.965Z,39.38
2022-08-10T09:14:25.893Z,39.38
2022-08-10T09:15:40.976Z,39.38
2022-08-10T09:16:25.933Z,33.75
2022-08-10T09:17:24.935Z,33.75
2022-08-10T09:18:24.913Z,33.75
2022-08-10T09:19:35.061Z,33.75
2022-08-10T09:20:25.910Z,33.75
2022-08-10T09:21:24.885Z,33.75
2022-08-10T09:22:25.879Z,33.75
2022-08-10T09:24:05.154Z,33.75
2022-08-10T09:24:25.874Z,33.75
2022-08-10T09:25:24.858Z,33.75
2022-08-10T09:26:24.847Z,33.75
2022-08-10T09:27:24.841Z,33.75
2022-08-10T09:28:26.634Z,33.75
2022-08-10T09:29:24.832Z,33.75
2022-08-10T09:30:28.401Z,33.75
2022-08-10T09:31:26.173Z,33.75
2022-08-10T09:36:15.818Z,33.75
2022-08-10T09:36:24.249Z,33.75
2022-08-10T09:36:24.604Z,33.75
2022-08-10T09:36:29.808Z,33.75
2022-08-10T09:36:32.620Z,33.75
2022-08-10T09:38:00.793Z,33.75
2022-08-10T09:38:25.775Z,33.75
2022-08-10T09:40:12.392Z,33.75
2022-08-10T09:41:00.641Z,33.75
2022-08-10T09:41:25.756Z,33.75
2022-08-10T09:42:24.745Z,33.75
2022-08-10T09:43:25.321Z,33.75
2022-08-10T09:44:25.758Z,33.75
2022-08-10T09:45:24.704Z,33.75
2022-08-10T09:46:27.566Z,33.75
2022-08-10T09:47:59.996Z,33.75
2022-08-10T09:48:25.685Z,33.75
2022-08-10T09:49:52.932Z,33.75
2022-08-10T09:50:26.674Z,33.75
2022-08-10T09:51:44.881Z,33.75
2022-08-10T09:52:26.670Z,33.75
2022-08-10T09:53:24.656Z,33.75
2022-08-10T09:54:24.648Z,33.75
2022-08-10T09:55:24.629Z,33.75
2022-08-10T09:56:28.669Z,33.75
2022-08-10T09:57:44.444Z,33.75
2022-08-10T09:58:26.597Z,33.75
2022-08-10T09:59:26.902Z,33.75
2022-08-10T10:00:25.585Z,33.75
2022-08-10T10:02:02.470Z,33.75
2022-08-10T10:02:25.577Z,33.75
2022-08-10T10:03:26.112Z,33.75
2022-08-10T10:04:25.575Z,33.75
2022-08-10T10:05:25.545Z,33.75
2022-08-10T10:06:24.533Z,33.75
2022-08-10T10:07:24.529Z,33.75
2022-08-10T10:08:24.525Z,33.75
2022-08-10T10:10:47.477Z,33.75
2022-08-10T10:11:44.761Z,33.75
2022-08-10T10:12:44.754Z,33.75
2022-08-10T10:14:02.944Z,33.75
2022-08-10T10:14:45.961Z,33.75
2022-08-10T10:15:45.778Z,33.75
2022-08-10T10:17:52.192Z,33.75
2022-08-10T10:18:52.180Z,33.75
2022-08-10T10:19:52.189Z,33.75
2022-08-10T10:20:52.174Z,33.75
2022-08-10T10:21:55.493Z,33.75
2022-08-10T10:22:53.250Z,33.75
2022-08-10T10:24:19.964Z,33.75
2022-08-10T10:24:55.226Z,33.75
2022-08-10T10:25:56.505Z,33.75
2022-08-10T10:26:54.225Z,33.75
2022-08-10T10:27:53.198Z,33.75
2022-08-10T10:29:58.001Z,33.75
2022-08-10T10:30:53.342Z,33.75
2022-08-10T10:31:53.192Z,33.75
2022-08-10T10:32:57.869Z,33.75
2022-08-10T10:33:55.153Z,33.75
2022-08-10T10:34:53.230Z,33.75
2022-08-10T10:35:54.015Z,33.75
2022-08-10T10:36:53.165Z,33.75
2022-08-10T10:38:01.382Z,33.75
2022-08-10T10:38:54.315Z,33.75
2022-08-10T10:39:54.244Z,33.75
2022-08-10T10:40:53.164Z,33.75
2022-08-10T10:42:03.449Z,39.38
2022-08-10T10:42:54.436Z,39.38
2022-08-10T10:43:53.098Z,39.38
2022-08-10T10:44:53.293Z,39.38
2022-08-10T10:45:53.270Z,33.75
2022-08-10T10:46:54.533Z,33.75
2022-08-10T10:47:54.234Z,33.75
2022-08-10T10:48:53.198Z,33.75
2022-08-10T10:49:53.062Z,33.75
2022-08-10T10:50:53.452Z,33.75
2022-08-10T10:51:55.519Z,33.75
2022-08-10T10:52:54.291Z,33.75
2022-08-10T10:53:52.996Z,33.75
2022-08-10T10:54:54.565Z,33.75
2022-08-10T10:56:14.754Z,33.75
2022-08-10T10:56:54.118Z,33.75
2022-08-10T10:58:00.401Z,33.75
2022-08-10T10:58:54.096Z,33.75
2022-08-10T10:59:55.714Z,33.75
2022-08-10T11:00:53.645Z,33.75
2022-08-10T11:01:52.990Z,33.75
2022-08-10T11:03:26.085Z,33.75
2022-08-10T11:03:52.912Z,33.75
2022-08-10T11:04:57.034Z,33.75
2022-08-10T11:05:53.896Z,33.75
2022-08-10T11:06:52.916Z,33.75
2022-08-10T11:07:53.362Z,39.38
2022-08-10T11:08:54.017Z,39.38
2022-08-10T11:10:09.205Z,39.38
2022-08-10T11:10:53.907Z,39.38
2022-08-10T11:12:01.646Z,39.38
2022-08-10T11:12:53.894Z,39.38
2022-08-10T11:14:25.578Z,39.38
2022-08-10T11:14:53.956Z,39.38
2022-08-10T11:15:52.830Z,39.38
2022-08-10T11:16:57.338Z,33.75
2022-08-10T11:17:54.836Z,28.12
2022-08-10T11:18:52.804Z,28.12
2022-08-10T11:20:00.130Z,33.75
2022-08-10T11:20:53.777Z,33.75
2022-08-10T11:21:52.787Z,33.75
2022-08-10T11:22:52.756Z,33.75
2022-08-10T11:24:44.491Z,33.75
2022-08-10T11:24:53.744Z,33.75
2022-08-10T11:25:52.734Z,33.75
2022-08-10T11:26:52.726Z,33.75
2022-08-10T11:27:52.713Z,33.75
2022-08-10T11:28:53.311Z,33.75
2022-08-10T11:29:52.704Z,33.75
2022-08-10T11:30:52.701Z,33.75
2022-08-10T11:31:52.700Z,33.75
2022-08-10T11:32:52.677Z,33.75
2022-08-10T11:35:11.256Z,33.75
2022-08-10T11:35:53.656Z,33.75
2022-08-10T11:36:52.659Z,33.75
2022-08-10T11:38:31.616Z,33.75
2022-08-10T11:39:13.525Z,33.75
2022-08-10T11:39:54.703Z,33.75
2022-08-10T11:40:52.628Z,33.75
2022-08-10T11:42:07.189Z,33.75
2022-08-10T11:42:53.597Z,33.75
2022-08-10T11:43:52.585Z,33.75
2022-08-10T11:44:52.583Z,33.75
2022-08-10T11:45:54.361Z,39.38
2022-08-10T11:46:52.568Z,39.38
2022-08-10T11:47:52.555Z,39.38
2022-08-10T11:48:57.003Z,33.75
2022-08-10T11:49:53.536Z,33.75
2022-08-10T11:50:52.535Z,39.38
2022-08-10T11:51:52.520Z,39.38
2022-08-10T11:52:52.530Z,39.38
2022-08-10T11:53:52.508Z,39.38
2022-08-10T11:54:52.501Z,39.38
2022-08-10T11:55:52.490Z,39.38
2022-08-10T11:56:52.485Z,39.38
2022-08-10T11:57:54.714Z,39.38
2022-08-10T11:58:52.472Z,39.38
2022-08-10T11:59:58.216Z,33.75
2022-08-10T12:00:53.448Z,33.75
2022-08-10T12:01:52.463Z,33.75
2022-08-10T12:02:53.277Z,28.12
2022-08-10T12:03:52.432Z,28.12
2022-08-10T12:04:52.419Z,28.12
2022-08-10T12:05:55.048Z,28.12
2022-08-10T12:06:55.724Z,28.12
2022-08-10T12:10:02.351Z,28.12
2022-08-10T12:10:06.567Z,28.12
2022-08-10T12:10:09.931Z,33.75
2022-08-10T12:10:53.374Z,28.12
2022-08-10T12:11:52.374Z,28.12
2022-08-10T12:12:52.365Z,28.12
2022-08-10T12:14:17.894Z,28.12
2022-08-10T12:14:54.343Z,28.12
2022-08-10T12:15:52.332Z,28.12
2022-08-10T12:16:52.331Z,28.12
2022-08-10T12:17:52.333Z,28.12
2022-08-10T12:18:52.307Z,28.12
2022-08-10T12:19:59.649Z,28.12
2022-08-10T12:20:53.305Z,28.12
2022-08-10T12:21:52.286Z,28.12
2022-08-10T12:22:52.286Z,28.12
2022-08-10T12:24:02.918Z,28.12
2022-08-10T12:24:53.266Z,28.12
2022-08-10T12:25:56.578Z,28.12
2022-08-10T12:26:53.245Z,28.12
2022-08-10T12:27:53.267Z,28.12
2022-08-10T12:28:52.324Z,28.12
2022-08-10T12:29:52.235Z,28.12
2022-08-10T12:30:52.229Z,28.12
2022-08-10T12:31:52.219Z,28.12
2022-08-10T12:32:52.204Z,28.12
2022-08-10T12:33:58.120Z,28.12
2022-08-10T12:34:53.209Z,28.12
2022-08-10T12:36:15.250Z,28.12
2022-08-10T12:36:54.170Z,28.12
2022-08-10T12:37:52.154Z,28.12
2022-08-10T12:38:52.158Z,28.12
2022-08-10T12:39:52.214Z,28.12
2022-08-10T12:40:52.144Z,28.12
2022-08-10T12:41:52.128Z,28.12
2022-08-10T12:43:13.043Z,28.12
2022-08-10T12:44:04.850Z,28.12
2022-08-10T12:44:53.113Z,28.12
2022-08-10T12:45:52.109Z,28.12
2022-08-10T12:46:52.088Z,28.12
2022-08-10T12:47:52.084Z,28.12
2022-08-10T12:48:52.084Z,28.12
2022-08-10T12:50:29.600Z,28.12
2022-08-10T12:50:53.079Z,28.12
2022-08-10T12:51:52.070Z,28.12
2022-08-10T12:52:52.064Z,28.12
2022-08-10T12:53:52.045Z,28.12
2022-08-10T12:54:52.037Z,28.12
2022-08-10T12:55:52.029Z,28.12
2022-08-10T12:56:52.021Z,28.12
2022-08-10T12:57:52.668Z,28.12
2022-08-10T12:58:59.691Z,28.12
2022-08-10T12:59:52.989Z,28.12
2022-08-10T13:01:14.609Z,28.12
2022-08-10T13:02:07.346Z,28.12
2022-08-10T13:02:53.003Z,28.12
2022-08-10T13:04:21.826Z,28.12
2022-08-10T13:04:52.952Z,28.12
2022-08-10T13:05:57.547Z,28.12